sensor_id;sensor_type;location;lat;lon;timestamp;P1;durP1;ratioP1;P2;durP2;ratioP2
17193;SDS011;8713;48.388;10.928;2023-09-12T00:00:12;11.80;;;7.80;;
17193;SDS011;8713;48.388;10.928;2023-09-12T00:01:22;12.68;;;8.35;;
17193;SDS011;8713;48.388;10.928;2023-09-12T00:02:32;11.55;;;7.78;;
17193;SDS011;8713;48.388;10.928;2023-09-12T00:03:41;12.65;;;7.47;;
17193;SDS011;8713;48.388;10.928;2023-09-12T00:04:51;12.68;;;7.88;;
17193;SDS011;8713;48.388;10.928;2023-09-12T00:06:01;15.55;;;8.05;;
17193;SDS011;8713;48.388;10.928;2023-09-12T00:07:11;15.57;;;7.97;;
17193;SDS011;8713;48.388;10.928;2023-09-12T00:08:21;14.65;;;7.60;;
17193;SDS011;8713;48.388;10.928;2023-09-12T00:09:32;11.18;;;7.28;;
17193;SDS011;8713;48.388;10.928;2023-09-12T00:10:41;14.02;;;8.07;;
17193;SDS011;8713;48.388;10.928;2023-09-12T00:11:51;13.60;;;7.75;;
17193;SDS011;8713;48.388;10.928;2023-09-12T00:13:02;11.93;;;7.68;;
17193;SDS011;8713;48.388;10.928;2023-09-12T00:14:16;12.85;;;7.97;;
17193;SDS011;8713;48.388;10.928;2023-09-12T00:15:26;12.45;;;7.95;;
17193;SDS011;8713;48.388;10.928;2023-09-12T00:16:35;15.13;;;8.25;;
17193;SDS011;8713;48.388;10.928;2023-09-12T00:17:45;13.38;;;7.85;;
17193;SDS011;8713;48.388;10.928;2023-09-12T00:18:54;12.82;;;7.78;;
17193;SDS011;8713;48.388;10.928;2023-09-12T00:20:04;12.13;;;7.90;;
17193;SDS011;8713;48.388;10.928;2023-09-12T00:21:16;13.60;;;7.60;;
17193;SDS011;8713;48.388;10.928;2023-09-12T00:22:26;13.95;;;8.05;;
17193;SDS011;8713;48.388;10.928;2023-09-12T00:23:35;13.73;;;8.57;;
17193;SDS011;8713;48.388;10.928;2023-09-12T00:24:45;14.15;;;8.75;;
17193;SDS011;8713;48.388;10.928;2023-09-12T00:25:54;11.60;;;7.82;;
17193;SDS011;8713;48.388;10.928;2023-09-12T00:27:04;13.23;;;8.45;;
17193;SDS011;8713;48.388;10.928;2023-09-12T00:28:14;14.15;;;8.48;;
17193;SDS011;8713;48.388;10.928;2023-09-12T00:29:24;13.43;;;8.32;;
17193;SDS011;8713;48.388;10.928;2023-09-12T00:30:34;12.27;;;8.57;;
17193;SDS011;8713;48.388;10.928;2023-09-12T00:31:43;12.45;;;8.55;;
17193;SDS011;8713;48.388;10.928;2023-09-12T00:32:53;14.10;;;8.57;;
17193;SDS011;8713;48.388;10.928;2023-09-12T00:34:02;12.57;;;8.45;;
17193;SDS011;8713;48.388;10.928;2023-09-12T00:35:12;11.30;;;8.02;;
17193;SDS011;8713;48.388;10.928;2023-09-12T00:36:22;12.25;;;8.75;;
17193;SDS011;8713;48.388;10.928;2023-09-12T00:37:31;12.82;;;8.10;;
17193;SDS011;8713;48.388;10.928;2023-09-12T00:38:41;11.93;;;8.43;;
17193;SDS011;8713;48.388;10.928;2023-09-12T00:39:50;12.73;;;8.35;;
17193;SDS011;8713;48.388;10.928;2023-09-12T00:41:00;14.25;;;8.40;;
17193;SDS011;8713;48.388;10.928;2023-09-12T00:42:10;12.50;;;8.20;;
17193;SDS011;8713;48.388;10.928;2023-09-12T00:43:19;11.00;;;8.40;;
17193;SDS011;8713;48.388;10.928;2023-09-12T00:44:29;14.48;;;8.70;;
17193;SDS011;8713;48.388;10.928;2023-09-12T00:45:39;17.23;;;8.63;;
17193;SDS011;8713;48.388;10.928;2023-09-12T00:46:50;12.85;;;8.80;;
17193;SDS011;8713;48.388;10.928;2023-09-12T00:48:02;12.75;;;8.48;;
17193;SDS011;8713;48.388;10.928;2023-09-12T00:49:13;13.18;;;8.32;;
17193;SDS011;8713;48.388;10.928;2023-09-12T00:50:23;11.88;;;8.82;;
17193;SDS011;8713;48.388;10.928;2023-09-12T00:51:35;14.43;;;9.00;;
17193;SDS011;8713;48.388;10.928;2023-09-12T00:52:44;13.20;;;8.50;;
17193;SDS011;8713;48.388;10.928;2023-09-12T00:53:55;14.30;;;8.88;;
17193;SDS011;8713;48.388;10.928;2023-09-12T00:55:05;15.68;;;8.48;;
17193;SDS011;8713;48.388;10.928;2023-09-12T00:56:15;12.82;;;8.77;;
17193;SDS011;8713;48.388;10.928;2023-09-12T00:57:24;13.55;;;8.93;;
17193;SDS011;8713;48.388;10.928;2023-09-12T00:58:35;15.52;;;8.95;;
17193;SDS011;8713;48.388;10.928;2023-09-12T00:59:45;14.07;;;9.10;;
17193;SDS011;8713;48.388;10.928;2023-09-12T01:00:55;13.25;;;9.05;;
17193;SDS011;8713;48.388;10.928;2023-09-12T01:02:05;13.75;;;8.88;;
17193;SDS011;8713;48.388;10.928;2023-09-12T01:03:15;13.65;;;8.95;;
17193;SDS011;8713;48.388;10.928;2023-09-12T01:04:25;13.63;;;8.85;;
17193;SDS011;8713;48.388;10.928;2023-09-12T01:05:35;16.00;;;9.60;;
17193;SDS011;8713;48.388;10.928;2023-09-12T01:06:45;14.90;;;9.50;;
17193;SDS011;8713;48.388;10.928;2023-09-12T01:07:56;15.45;;;10.20;;
17193;SDS011;8713;48.388;10.928;2023-09-12T01:09:06;13.65;;;9.90;;
17193;SDS011;8713;48.388;10.928;2023-09-12T01:10:17;14.60;;;9.80;;
17193;SDS011;8713;48.388;10.928;2023-09-12T01:11:27;16.40;;;9.82;;
17193;SDS011;8713;48.388;10.928;2023-09-12T01:12:37;13.15;;;9.20;;
17193;SDS011;8713;48.388;10.928;2023-09-12T01:13:47;14.90;;;9.40;;
17193;SDS011;8713;48.388;10.928;2023-09-12T01:14:57;14.43;;;9.05;;
17193;SDS011;8713;48.388;10.928;2023-09-12T01:16:07;12.20;;;8.48;;
17193;SDS011;8713;48.388;10.928;2023-09-12T01:17:16;12.98;;;8.98;;
17193;SDS011;8713;48.388;10.928;2023-09-12T01:18:26;12.82;;;8.75;;
17193;SDS011;8713;48.388;10.928;2023-09-12T01:19:35;16.55;;;9.18;;
17193;SDS011;8713;48.388;10.928;2023-09-12T01:21:12;13.00;;;9.05;;
17193;SDS011;8713;48.388;10.928;2023-09-12T01:26:16;13.70;;;8.77;;
17193;SDS011;8713;48.388;10.928;2023-09-12T01:27:41;13.95;;;9.50;;
17193;SDS011;8713;48.388;10.928;2023-09-12T01:28:54;15.82;;;9.68;;
17193;SDS011;8713;48.388;10.928;2023-09-12T01:30:08;13.30;;;8.80;;
17193;SDS011;8713;48.388;10.928;2023-09-12T01:31:19;15.75;;;9.38;;
17193;SDS011;8713;48.388;10.928;2023-09-12T01:32:29;17.35;;;9.82;;
17193;SDS011;8713;48.388;10.928;2023-09-12T01:33:41;13.55;;;9.50;;
17193;SDS011;8713;48.388;10.928;2023-09-12T01:34:50;13.82;;;9.82;;
17193;SDS011;8713;48.388;10.928;2023-09-12T01:36:01;12.52;;;9.02;;
17193;SDS011;8713;48.388;10.928;2023-09-12T01:37:10;13.77;;;9.30;;
17193;SDS011;8713;48.388;10.928;2023-09-12T01:38:21;14.02;;;8.93;;
17193;SDS011;8713;48.388;10.928;2023-09-12T01:39:31;13.07;;;8.75;;
17193;SDS011;8713;48.388;10.928;2023-09-12T01:40:46;13.43;;;8.85;;
17193;SDS011;8713;48.388;10.928;2023-09-12T01:41:58;18.38;;;9.77;;
17193;SDS011;8713;48.388;10.928;2023-09-12T01:43:09;13.07;;;9.52;;
17193;SDS011;8713;48.388;10.928;2023-09-12T01:44:19;13.95;;;9.68;;
17193;SDS011;8713;48.388;10.928;2023-09-12T01:45:29;15.02;;;10.32;;
17193;SDS011;8713;48.388;10.928;2023-09-12T01:46:38;13.18;;;9.75;;
17193;SDS011;8713;48.388;10.928;2023-09-12T01:47:48;14.38;;;9.57;;
17193;SDS011;8713;48.388;10.928;2023-09-12T01:48:59;14.55;;;9.43;;
17193;SDS011;8713;48.388;10.928;2023-09-12T01:50:10;16.67;;;10.02;;
17193;SDS011;8713;48.388;10.928;2023-09-12T01:51:22;16.83;;;9.80;;
17193;SDS011;8713;48.388;10.928;2023-09-12T01:52:32;14.75;;;9.70;;
17193;SDS011;8713;48.388;10.928;2023-09-12T01:53:42;13.50;;;9.35;;
17193;SDS011;8713;48.388;10.928;2023-09-12T01:54:54;14.95;;;9.48;;
17193;SDS011;8713;48.388;10.928;2023-09-12T01:56:05;15.13;;;9.50;;
17193;SDS011;8713;48.388;10.928;2023-09-12T01:57:15;15.68;;;9.60;;
17193;SDS011;8713;48.388;10.928;2023-09-12T01:58:25;14.75;;;9.45;;
17193;SDS011;8713;48.388;10.928;2023-09-12T01:59:35;14.43;;;9.40;;
17193;SDS011;8713;48.388;10.928;2023-09-12T02:00:44;14.60;;;9.38;;
17193;SDS011;8713;48.388;10.928;2023-09-12T02:01:54;13.30;;;9.32;;
17193;SDS011;8713;48.388;10.928;2023-09-12T02:03:04;14.45;;;9.55;;
17193;SDS011;8713;48.388;10.928;2023-09-12T02:04:13;13.77;;;9.40;;
17193;SDS011;8713;48.388;10.928;2023-09-12T02:05:23;14.43;;;9.63;;
17193;SDS011;8713;48.388;10.928;2023-09-12T02:06:33;15.32;;;9.30;;
17193;SDS011;8713;48.388;10.928;2023-09-12T02:07:43;13.15;;;9.00;;
17193;SDS011;8713;48.388;10.928;2023-09-12T02:08:54;17.00;;;9.23;;
17193;SDS011;8713;48.388;10.928;2023-09-12T02:10:03;15.50;;;9.32;;
17193;SDS011;8713;48.388;10.928;2023-09-12T02:11:13;13.50;;;8.45;;
17193;SDS011;8713;48.388;10.928;2023-09-12T02:12:23;16.00;;;9.38;;
17193;SDS011;8713;48.388;10.928;2023-09-12T02:13:32;13.68;;;8.80;;
17193;SDS011;8713;48.388;10.928;2023-09-12T02:14:42;14.70;;;9.40;;
17193;SDS011;8713;48.388;10.928;2023-09-12T02:15:58;13.68;;;9.32;;
17193;SDS011;8713;48.388;10.928;2023-09-12T02:17:09;13.13;;;9.00;;
17193;SDS011;8713;48.388;10.928;2023-09-12T02:18:18;15.73;;;9.43;;
17193;SDS011;8713;48.388;10.928;2023-09-12T02:19:27;11.70;;;9.00;;
17193;SDS011;8713;48.388;10.928;2023-09-12T02:20:39;12.70;;;8.73;;
17193;SDS011;8713;48.388;10.928;2023-09-12T02:21:50;14.30;;;9.30;;
17193;SDS011;8713;48.388;10.928;2023-09-12T02:22:59;12.57;;;8.77;;
17193;SDS011;8713;48.388;10.928;2023-09-12T02:24:09;14.15;;;8.88;;
17193;SDS011;8713;48.388;10.928;2023-09-12T02:25:18;12.10;;;8.68;;
17193;SDS011;8713;48.388;10.928;2023-09-12T02:26:30;13.45;;;9.13;;
17193;SDS011;8713;48.388;10.928;2023-09-12T02:27:45;12.82;;;8.60;;
17193;SDS011;8713;48.388;10.928;2023-09-12T02:28:55;12.23;;;8.85;;
17193;SDS011;8713;48.388;10.928;2023-09-12T02:30:04;12.80;;;9.15;;
17193;SDS011;8713;48.388;10.928;2023-09-12T02:31:15;13.05;;;8.30;;
17193;SDS011;8713;48.388;10.928;2023-09-12T02:32:24;14.07;;;8.38;;
17193;SDS011;8713;48.388;10.928;2023-09-12T02:33:34;14.32;;;8.93;;
17193;SDS011;8713;48.388;10.928;2023-09-12T02:34:43;12.20;;;8.85;;
17193;SDS011;8713;48.388;10.928;2023-09-12T02:35:53;11.65;;;8.55;;
17193;SDS011;8713;48.388;10.928;2023-09-12T02:37:02;12.75;;;8.63;;
17193;SDS011;8713;48.388;10.928;2023-09-12T02:38:13;11.27;;;8.23;;
17193;SDS011;8713;48.388;10.928;2023-09-12T02:39:22;12.40;;;8.82;;
17193;SDS011;8713;48.388;10.928;2023-09-12T02:40:32;13.23;;;8.77;;
17193;SDS011;8713;48.388;10.928;2023-09-12T02:41:42;13.38;;;8.75;;
17193;SDS011;8713;48.388;10.928;2023-09-12T02:42:52;11.90;;;8.15;;
17193;SDS011;8713;48.388;10.928;2023-09-12T02:44:01;12.73;;;8.98;;
17193;SDS011;8713;48.388;10.928;2023-09-12T02:45:11;16.75;;;9.07;;
17193;SDS011;8713;48.388;10.928;2023-09-12T02:46:21;12.32;;;8.73;;
17193;SDS011;8713;48.388;10.928;2023-09-12T02:47:31;13.38;;;8.70;;
17193;SDS011;8713;48.388;10.928;2023-09-12T02:48:41;14.88;;;8.55;;
17193;SDS011;8713;48.388;10.928;2023-09-12T02:49:50;12.10;;;8.75;;
17193;SDS011;8713;48.388;10.928;2023-09-12T02:51:00;12.30;;;8.88;;
17193;SDS011;8713;48.388;10.928;2023-09-12T02:52:10;13.07;;;8.48;;
17193;SDS011;8713;48.388;10.928;2023-09-12T02:53:20;12.80;;;8.70;;
17193;SDS011;8713;48.388;10.928;2023-09-12T02:54:30;14.15;;;8.73;;
17193;SDS011;8713;48.388;10.928;2023-09-12T02:55:39;12.90;;;8.80;;
17193;SDS011;8713;48.388;10.928;2023-09-12T02:56:52;14.05;;;9.45;;
17193;SDS011;8713;48.388;10.928;2023-09-12T02:58:02;12.73;;;9.02;;
17193;SDS011;8713;48.388;10.928;2023-09-12T02:59:11;13.00;;;9.13;;
17193;SDS011;8713;48.388;10.928;2023-09-12T03:00:21;12.70;;;8.50;;
17193;SDS011;8713;48.388;10.928;2023-09-12T03:01:31;13.23;;;8.68;;
17193;SDS011;8713;48.388;10.928;2023-09-12T03:02:41;12.05;;;8.45;;
17193;SDS011;8713;48.388;10.928;2023-09-12T03:03:51;11.73;;;8.77;;
17193;SDS011;8713;48.388;10.928;2023-09-12T03:05:01;14.45;;;9.07;;
17193;SDS011;8713;48.388;10.928;2023-09-12T03:06:11;13.18;;;9.15;;
17193;SDS011;8713;48.388;10.928;2023-09-12T03:07:21;10.98;;;7.97;;
17193;SDS011;8713;48.388;10.928;2023-09-12T03:08:31;12.35;;;8.35;;
17193;SDS011;8713;48.388;10.928;2023-09-12T03:09:40;12.77;;;8.25;;
17193;SDS011;8713;48.388;10.928;2023-09-12T03:10:54;14.07;;;8.13;;
17193;SDS011;8713;48.388;10.928;2023-09-12T03:12:05;11.90;;;8.05;;
17193;SDS011;8713;48.388;10.928;2023-09-12T03:13:15;11.52;;;8.35;;
17193;SDS011;8713;48.388;10.928;2023-09-12T03:14:24;11.73;;;8.55;;
17193;SDS011;8713;48.388;10.928;2023-09-12T03:15:37;11.85;;;8.68;;
17193;SDS011;8713;48.388;10.928;2023-09-12T03:16:47;12.77;;;8.07;;
17193;SDS011;8713;48.388;10.928;2023-09-12T03:17:57;11.65;;;8.32;;
17193;SDS011;8713;48.388;10.928;2023-09-12T03:19:07;16.20;;;7.97;;
17193;SDS011;8713;48.388;10.928;2023-09-12T03:20:16;12.18;;;8.55;;
17193;SDS011;8713;48.388;10.928;2023-09-12T03:21:26;11.98;;;8.07;;
17193;SDS011;8713;48.388;10.928;2023-09-12T03:22:36;12.05;;;8.15;;
17193;SDS011;8713;48.388;10.928;2023-09-12T03:23:46;12.32;;;8.68;;
17193;SDS011;8713;48.388;10.928;2023-09-12T03:24:58;12.02;;;7.82;;
17193;SDS011;8713;48.388;10.928;2023-09-12T03:26:08;11.38;;;7.93;;
17193;SDS011;8713;48.388;10.928;2023-09-12T03:27:19;11.60;;;8.35;;
17193;SDS011;8713;48.388;10.928;2023-09-12T03:28:29;13.70;;;8.30;;
17193;SDS011;8713;48.388;10.928;2023-09-12T03:29:39;11.80;;;7.90;;
17193;SDS011;8713;48.388;10.928;2023-09-12T03:30:49;14.32;;;8.63;;
17193;SDS011;8713;48.388;10.928;2023-09-12T03:31:58;14.80;;;8.68;;
17193;SDS011;8713;48.388;10.928;2023-09-12T03:33:08;13.20;;;8.57;;
17193;SDS011;8713;48.388;10.928;2023-09-12T03:34:18;12.23;;;8.05;;
17193;SDS011;8713;48.388;10.928;2023-09-12T03:35:28;11.80;;;8.20;;
17193;SDS011;8713;48.388;10.928;2023-09-12T03:36:38;13.88;;;8.15;;
17193;SDS011;8713;48.388;10.928;2023-09-12T03:37:48;13.23;;;7.95;;
17193;SDS011;8713;48.388;10.928;2023-09-12T03:38:58;12.10;;;7.68;;
17193;SDS011;8713;48.388;10.928;2023-09-12T03:40:08;12.25;;;7.82;;
17193;SDS011;8713;48.388;10.928;2023-09-12T03:41:19;13.13;;;8.18;;
17193;SDS011;8713;48.388;10.928;2023-09-12T03:42:34;13.48;;;8.55;;
17193;SDS011;8713;48.388;10.928;2023-09-12T03:43:43;12.75;;;8.23;;
17193;SDS011;8713;48.388;10.928;2023-09-12T03:44:53;11.55;;;8.52;;
17193;SDS011;8713;48.388;10.928;2023-09-12T03:46:03;12.27;;;8.30;;
17193;SDS011;8713;48.388;10.928;2023-09-12T03:47:14;11.23;;;8.30;;
17193;SDS011;8713;48.388;10.928;2023-09-12T03:48:24;11.40;;;8.18;;
17193;SDS011;8713;48.388;10.928;2023-09-12T03:49:34;13.15;;;8.27;;
17193;SDS011;8713;48.388;10.928;2023-09-12T03:50:44;14.18;;;8.18;;
17193;SDS011;8713;48.388;10.928;2023-09-12T03:51:54;12.20;;;8.45;;
17193;SDS011;8713;48.388;10.928;2023-09-12T03:53:04;13.02;;;8.27;;
17193;SDS011;8713;48.388;10.928;2023-09-12T03:54:13;11.38;;;8.18;;
17193;SDS011;8713;48.388;10.928;2023-09-12T03:55:23;12.40;;;8.45;;
17193;SDS011;8713;48.388;10.928;2023-09-12T03:56:33;12.70;;;8.20;;
17193;SDS011;8713;48.388;10.928;2023-09-12T03:57:43;15.82;;;8.00;;
17193;SDS011;8713;48.388;10.928;2023-09-12T03:58:52;13.93;;;8.23;;
17193;SDS011;8713;48.388;10.928;2023-09-12T04:00:05;11.65;;;8.02;;
17193;SDS011;8713;48.388;10.928;2023-09-12T04:01:22;10.18;;;7.38;;
17193;SDS011;8713;48.388;10.928;2023-09-12T04:02:32;13.25;;;8.48;;
17193;SDS011;8713;48.388;10.928;2023-09-12T04:03:42;12.00;;;8.05;;
17193;SDS011;8713;48.388;10.928;2023-09-12T04:04:52;11.45;;;7.95;;
17193;SDS011;8713;48.388;10.928;2023-09-12T04:06:02;11.48;;;7.80;;
17193;SDS011;8713;48.388;10.928;2023-09-12T04:07:11;12.20;;;8.05;;
17193;SDS011;8713;48.388;10.928;2023-09-12T04:08:22;12.50;;;8.55;;
17193;SDS011;8713;48.388;10.928;2023-09-12T04:09:32;14.02;;;8.40;;
17193;SDS011;8713;48.388;10.928;2023-09-12T04:10:42;11.80;;;8.10;;
17193;SDS011;8713;48.388;10.928;2023-09-12T04:11:52;10.80;;;7.68;;
17193;SDS011;8713;48.388;10.928;2023-09-12T04:13:02;12.98;;;8.75;;
17193;SDS011;8713;48.388;10.928;2023-09-12T04:14:13;13.10;;;8.48;;
17193;SDS011;8713;48.388;10.928;2023-09-12T04:15:23;13.15;;;8.60;;
17193;SDS011;8713;48.388;10.928;2023-09-12T04:16:33;11.98;;;8.38;;
17193;SDS011;8713;48.388;10.928;2023-09-12T04:17:43;12.05;;;8.25;;
17193;SDS011;8713;48.388;10.928;2023-09-12T04:18:52;11.55;;;8.27;;
17193;SDS011;8713;48.388;10.928;2023-09-12T04:20:02;12.70;;;8.02;;
17193;SDS011;8713;48.388;10.928;2023-09-12T04:21:13;12.48;;;8.30;;
17193;SDS011;8713;48.388;10.928;2023-09-12T04:22:23;18.10;;;8.68;;
17193;SDS011;8713;48.388;10.928;2023-09-12T04:23:33;12.45;;;8.20;;
17193;SDS011;8713;48.388;10.928;2023-09-12T04:24:45;13.32;;;8.35;;
17193;SDS011;8713;48.388;10.928;2023-09-12T04:25:55;13.50;;;8.00;;
17193;SDS011;8713;48.388;10.928;2023-09-12T04:27:04;14.52;;;8.43;;
17193;SDS011;8713;48.388;10.928;2023-09-12T04:28:14;13.68;;;8.77;;
17193;SDS011;8713;48.388;10.928;2023-09-12T04:29:24;12.60;;;8.32;;
17193;SDS011;8713;48.388;10.928;2023-09-12T04:30:34;13.00;;;8.63;;
17193;SDS011;8713;48.388;10.928;2023-09-12T04:31:44;13.48;;;8.63;;
17193;SDS011;8713;48.388;10.928;2023-09-12T04:32:54;12.80;;;7.90;;
17193;SDS011;8713;48.388;10.928;2023-09-12T04:34:05;12.95;;;8.25;;
17193;SDS011;8713;48.388;10.928;2023-09-12T04:35:14;12.07;;;8.55;;
17193;SDS011;8713;48.388;10.928;2023-09-12T04:36:24;12.40;;;8.32;;
17193;SDS011;8713;48.388;10.928;2023-09-12T04:37:34;14.10;;;8.32;;
17193;SDS011;8713;48.388;10.928;2023-09-12T04:38:44;12.25;;;8.38;;
17193;SDS011;8713;48.388;10.928;2023-09-12T04:39:54;14.18;;;8.68;;
17193;SDS011;8713;48.388;10.928;2023-09-12T04:41:05;13.48;;;8.13;;
17193;SDS011;8713;48.388;10.928;2023-09-12T04:42:15;13.30;;;7.82;;
17193;SDS011;8713;48.388;10.928;2023-09-12T04:43:25;13.30;;;8.07;;
17193;SDS011;8713;48.388;10.928;2023-09-12T04:44:35;12.50;;;8.18;;
17193;SDS011;8713;48.388;10.928;2023-09-12T04:45:46;12.27;;;8.02;;
17193;SDS011;8713;48.388;10.928;2023-09-12T04:46:56;12.20;;;8.40;;
17193;SDS011;8713;48.388;10.928;2023-09-12T04:48:06;15.30;;;8.35;;
17193;SDS011;8713;48.388;10.928;2023-09-12T04:49:16;12.13;;;8.18;;
17193;SDS011;8713;48.388;10.928;2023-09-12T04:50:26;11.98;;;8.07;;
17193;SDS011;8713;48.388;10.928;2023-09-12T04:51:36;13.15;;;8.43;;
17193;SDS011;8713;48.388;10.928;2023-09-12T04:52:45;12.43;;;7.97;;
17193;SDS011;8713;48.388;10.928;2023-09-12T04:53:55;13.07;;;7.55;;
17193;SDS011;8713;48.388;10.928;2023-09-12T04:55:05;11.65;;;7.90;;
17193;SDS011;8713;48.388;10.928;2023-09-12T04:56:15;10.63;;;7.53;;
17193;SDS011;8713;48.388;10.928;2023-09-12T04:57:25;12.10;;;7.43;;
17193;SDS011;8713;48.388;10.928;2023-09-12T04:58:34;11.13;;;7.90;;
17193;SDS011;8713;48.388;10.928;2023-09-12T04:59:44;12.40;;;8.30;;
17193;SDS011;8713;48.388;10.928;2023-09-12T05:00:54;12.25;;;7.60;;
17193;SDS011;8713;48.388;10.928;2023-09-12T05:02:05;11.52;;;7.93;;
17193;SDS011;8713;48.388;10.928;2023-09-12T05:03:14;11.70;;;8.13;;
17193;SDS011;8713;48.388;10.928;2023-09-12T05:04:24;12.57;;;8.10;;
17193;SDS011;8713;48.388;10.928;2023-09-12T05:05:34;12.65;;;8.07;;
17193;SDS011;8713;48.388;10.928;2023-09-12T05:06:45;10.07;;;7.50;;
17193;SDS011;8713;48.388;10.928;2023-09-12T05:07:59;12.05;;;7.90;;
17193;SDS011;8713;48.388;10.928;2023-09-12T05:09:09;12.25;;;8.05;;
17193;SDS011;8713;48.388;10.928;2023-09-12T05:10:20;12.32;;;7.50;;
17193;SDS011;8713;48.388;10.928;2023-09-12T05:11:30;12.38;;;7.70;;
17193;SDS011;8713;48.388;10.928;2023-09-12T05:12:40;9.65;;;7.22;;
17193;SDS011;8713;48.388;10.928;2023-09-12T05:13:49;10.38;;;7.60;;
17193;SDS011;8713;48.388;10.928;2023-09-12T05:14:59;13.00;;;8.05;;
17193;SDS011;8713;48.388;10.928;2023-09-12T05:16:09;10.48;;;7.43;;
17193;SDS011;8713;48.388;10.928;2023-09-12T05:17:19;10.65;;;8.05;;
17193;SDS011;8713;48.388;10.928;2023-09-12T05:18:29;10.25;;;7.53;;
17193;SDS011;8713;48.388;10.928;2023-09-12T05:19:38;12.50;;;8.13;;
17193;SDS011;8713;48.388;10.928;2023-09-12T05:20:48;12.27;;;7.53;;
17193;SDS011;8713;48.388;10.928;2023-09-12T05:21:57;11.65;;;7.90;;
17193;SDS011;8713;48.388;10.928;2023-09-12T05:23:07;10.70;;;7.50;;
17193;SDS011;8713;48.388;10.928;2023-09-12T05:24:17;12.15;;;7.97;;
17193;SDS011;8713;48.388;10.928;2023-09-12T05:25:27;11.13;;;7.38;;
17193;SDS011;8713;48.388;10.928;2023-09-12T05:26:37;11.45;;;7.50;;
17193;SDS011;8713;48.388;10.928;2023-09-12T05:27:47;13.00;;;7.28;;
17193;SDS011;8713;48.388;10.928;2023-09-12T05:28:57;11.13;;;7.50;;
17193;SDS011;8713;48.388;10.928;2023-09-12T05:30:09;13.50;;;7.60;;
17193;SDS011;8713;48.388;10.928;2023-09-12T05:31:19;12.10;;;7.55;;
17193;SDS011;8713;48.388;10.928;2023-09-12T05:32:29;14.80;;;7.95;;
17193;SDS011;8713;48.388;10.928;2023-09-12T05:33:39;11.30;;;7.55;;
17193;SDS011;8713;48.388;10.928;2023-09-12T05:34:49;14.38;;;8.23;;
17193;SDS011;8713;48.388;10.928;2023-09-12T05:35:59;18.30;;;7.93;;
17193;SDS011;8713;48.388;10.928;2023-09-12T05:37:09;13.70;;;7.90;;
17193;SDS011;8713;48.388;10.928;2023-09-12T05:38:19;11.98;;;7.95;;
17193;SDS011;8713;48.388;10.928;2023-09-12T05:39:29;12.82;;;7.80;;
17193;SDS011;8713;48.388;10.928;2023-09-12T05:40:38;12.30;;;7.82;;
17193;SDS011;8713;48.388;10.928;2023-09-12T05:41:49;12.98;;;7.10;;
17193;SDS011;8713;48.388;10.928;2023-09-12T05:42:58;15.65;;;8.27;;
17193;SDS011;8713;48.388;10.928;2023-09-12T05:44:08;13.02;;;7.57;;
17193;SDS011;8713;48.388;10.928;2023-09-12T05:45:17;11.35;;;8.27;;
17193;SDS011;8713;48.388;10.928;2023-09-12T05:46:27;11.30;;;7.70;;
17193;SDS011;8713;48.388;10.928;2023-09-12T05:47:37;12.82;;;7.07;;
17193;SDS011;8713;48.388;10.928;2023-09-12T05:48:46;10.70;;;6.80;;
17193;SDS011;8713;48.388;10.928;2023-09-12T05:49:57;12.73;;;8.02;;
17193;SDS011;8713;48.388;10.928;2023-09-12T05:51:08;12.43;;;8.10;;
17193;SDS011;8713;48.388;10.928;2023-09-12T05:52:18;12.80;;;8.30;;
17193;SDS011;8713;48.388;10.928;2023-09-12T05:53:27;12.63;;;8.20;;
17193;SDS011;8713;48.388;10.928;2023-09-12T05:54:38;11.50;;;7.88;;
17193;SDS011;8713;48.388;10.928;2023-09-12T05:55:49;19.05;;;7.85;;
17193;SDS011;8713;48.388;10.928;2023-09-12T05:56:59;15.63;;;7.88;;
17193;SDS011;8713;48.388;10.928;2023-09-12T05:58:09;11.05;;;7.72;;
17193;SDS011;8713;48.388;10.928;2023-09-12T05:59:19;12.02;;;7.90;;
17193;SDS011;8713;48.388;10.928;2023-09-12T06:00:29;14.55;;;7.85;;
17193;SDS011;8713;48.388;10.928;2023-09-12T06:01:38;13.88;;;8.20;;
17193;SDS011;8713;48.388;10.928;2023-09-12T06:02:48;13.35;;;8.02;;
17193;SDS011;8713;48.388;10.928;2023-09-12T06:03:58;10.77;;;7.28;;
17193;SDS011;8713;48.388;10.928;2023-09-12T06:05:07;17.70;;;8.07;;
17193;SDS011;8713;48.388;10.928;2023-09-12T06:06:17;16.35;;;8.60;;
17193;SDS011;8713;48.388;10.928;2023-09-12T06:07:26;12.70;;;8.07;;
17193;SDS011;8713;48.388;10.928;2023-09-12T06:08:36;11.82;;;7.68;;
17193;SDS011;8713;48.388;10.928;2023-09-12T06:09:46;11.77;;;7.35;;
17193;SDS011;8713;48.388;10.928;2023-09-12T06:10:55;11.60;;;7.28;;
17193;SDS011;8713;48.388;10.928;2023-09-12T06:12:06;11.88;;;7.30;;
17193;SDS011;8713;48.388;10.928;2023-09-12T06:13:15;12.07;;;7.38;;
17193;SDS011;8713;48.388;10.928;2023-09-12T06:14:25;11.25;;;7.95;;
17193;SDS011;8713;48.388;10.928;2023-09-12T06:15:34;10.00;;;6.95;;
17193;SDS011;8713;48.388;10.928;2023-09-12T06:16:44;11.05;;;7.38;;
17193;SDS011;8713;48.388;10.928;2023-09-12T06:17:54;9.75;;;6.80;;
17193;SDS011;8713;48.388;10.928;2023-09-12T06:19:04;10.55;;;6.88;;
17193;SDS011;8713;48.388;10.928;2023-09-12T06:20:13;10.35;;;6.80;;
17193;SDS011;8713;48.388;10.928;2023-09-12T06:21:22;13.73;;;7.03;;
17193;SDS011;8713;48.388;10.928;2023-09-12T06:22:32;15.40;;;6.90;;
17193;SDS011;8713;48.388;10.928;2023-09-12T06:23:42;12.50;;;7.60;;
17193;SDS011;8713;48.388;10.928;2023-09-12T06:24:52;13.43;;;7.53;;
17193;SDS011;8713;48.388;10.928;2023-09-12T06:26:02;10.98;;;6.88;;
17193;SDS011;8713;48.388;10.928;2023-09-12T06:27:11;15.27;;;7.65;;
17193;SDS011;8713;48.388;10.928;2023-09-12T06:28:27;13.50;;;7.03;;
17193;SDS011;8713;48.388;10.928;2023-09-12T06:29:40;10.05;;;6.40;;
17193;SDS011;8713;48.388;10.928;2023-09-12T06:30:49;12.25;;;6.93;;
17193;SDS011;8713;48.388;10.928;2023-09-12T06:31:59;12.73;;;6.88;;
17193;SDS011;8713;48.388;10.928;2023-09-12T06:33:08;10.45;;;7.00;;
17193;SDS011;8713;48.388;10.928;2023-09-12T06:34:24;12.40;;;6.97;;
17193;SDS011;8713;48.388;10.928;2023-09-12T06:35:33;10.98;;;6.57;;
17193;SDS011;8713;48.388;10.928;2023-09-12T06:36:43;10.60;;;6.70;;
17193;SDS011;8713;48.388;10.928;2023-09-12T06:37:53;11.77;;;6.43;;
17193;SDS011;8713;48.388;10.928;2023-09-12T06:39:04;10.57;;;6.80;;
17193;SDS011;8713;48.388;10.928;2023-09-12T06:40:14;13.73;;;7.15;;
17193;SDS011;8713;48.388;10.928;2023-09-12T06:41:24;12.60;;;7.30;;
17193;SDS011;8713;48.388;10.928;2023-09-12T06:42:53;10.52;;;6.70;;
17193;SDS011;8713;48.388;10.928;2023-09-12T06:44:21;10.38;;;6.47;;
17193;SDS011;8713;48.388;10.928;2023-09-12T06:45:51;11.23;;;6.90;;
17193;SDS011;8713;48.388;10.928;2023-09-12T06:47:20;14.02;;;7.30;;
17193;SDS011;8713;48.388;10.928;2023-09-12T06:48:50;11.68;;;7.47;;
17193;SDS011;8713;48.388;10.928;2023-09-12T06:50:20;10.65;;;6.95;;
17193;SDS011;8713;48.388;10.928;2023-09-12T06:51:49;11.73;;;7.28;;
17193;SDS011;8713;48.388;10.928;2023-09-12T06:53:19;13.68;;;6.97;;
17193;SDS011;8713;48.388;10.928;2023-09-12T06:54:48;10.02;;;6.15;;
17193;SDS011;8713;48.388;10.928;2023-09-12T06:56:18;8.55;;;6.20;;
17193;SDS011;8713;48.388;10.928;2023-09-12T06:57:47;10.90;;;6.80;;
17193;SDS011;8713;48.388;10.928;2023-09-12T06:59:17;11.55;;;6.65;;
17193;SDS011;8713;48.388;10.928;2023-09-12T07:00:47;10.27;;;6.93;;
17193;SDS011;8713;48.388;10.928;2023-09-12T07:02:16;13.77;;;7.00;;
17193;SDS011;8713;48.388;10.928;2023-09-12T07:03:48;10.00;;;6.57;;
17193;SDS011;8713;48.388;10.928;2023-09-12T07:05:21;9.20;;;6.15;;
17193;SDS011;8713;48.388;10.928;2023-09-12T07:06:50;8.88;;;6.28;;